Hyannis Port, MA (02647)

12:30 PM EDT on July 29, 2016 (GMT -0400)
Megan Road | | Change Station
Active Advisory: Flash Flood Watch

Elev 56 ft 41.66 °N, 70.30 °W | Updated 23 seconds ago

Rain
Rain Mist
75.6 °F
Feels Like 75 °F
N
0.0
Wind Variable Wind from NNW
Gusts 0.0 mph

Today
High -- | Low -- °F
--% Chance of Precip.
Yesterday
High -- | Low -- °F
Precip. -- in
Pressure 29.86 in
Visibility 4.0 miles
Clouds Few 400 ft
Overcast 7000 ft
Heat Index 75 °F
Dew Point 73 °F
Humidity 93%
Rainfall 0.18 in
Snow Depth Not available.
5:33 AM 8:01 PM
Waning Crescent, 21% visible
METAR KHYA 291556Z 35007KT 4SM RA BR FEW004 OVC070 22/21 A2986 RMK AO2 SLP111 P0005 T02170211
Pressure 29.86 in
Visibility 4.0 miles
Clouds Few 400 ft
Overcast 7000 ft
Heat Index 75 °F
Dew Point 73 °F
Humidity 93%
Rainfall 0.18 in
Snow Depth Not available.
5:33 AM 8:01 PM
Waning Crescent, 21% visible
METAR KHYA 291556Z 35007KT 4SM RA BR FEW004 OVC070 22/21 A2986 RMK AO2 SLP111 P0005 T02170211

10-Day Weather Forecast

Almanac

Astronomy

Jul. 29, 2016 Rise Set
Actual Time
Civil Twilight
Nautical Twilight
Astronomical Twilight
Moon
Length of Visible Light
Length of Day
Tomorrow will be .
, % of the Moon is Illuminated

Today's Extremes

State Highs State Lows

Community

WunderPhotos

Upload Photos

1,928,365 photos uploaded!

WunderBlog® & News

Nearby

Air Quality

  Air Quality AQ Index Pollutant
Not available.

Snow Depth

Station Depth Elevation

Earthquake Activity

City Distance Mag. Time & Date
Minimum magnitude displayed is 2.5.

Coastal Water Temperatures

Place Temperature

Stations

Nearby Weather Stations

Station Location Temp. Windchill Dew Point Humidity Wind Precip. Elev Updated Type
                   

Watches & Warnings

Flash Flood Watch
Issued: 7:05 AM EDT Jul. 29, 2016 – National Weather Service

... Flash Flood Watch in effect until 5 PM EDT this afternoon...

The Flash Flood Watch is now in effect for

* a portion of southeastern Massachusetts... including the
following counties... Barnstable... Dukes... Nantucket... southern
Bristol and southern Plymouth...

* until 5 PM EDT this afternoon.

* Rain may be heavy at times across southeast Massachusetts. Main
concern is the possibility of significant urban flooding of
roads and underpasses that are prone to flooding in heavy rain.

Precautionary/preparedness actions...

A Flash Flood Watch means that conditions may develop that lead
to rapid and life threatening flooding. Be prepared. If you live
or work in an area prone to flooding... know a safe place to go if
flooding occurs or if a Flash Flood Warning is issued.

Drivers should plan to avoid flooded roads and have an alternate
Route available.

Stay tuned to later forecasts and be prepared to take action
should flash flood warnings be issued.



Sipprell